createdAt,value
2017-08-26T00:00:12.637Z,18.3
2017-08-26T00:01:14.741Z,18.2
2017-08-26T00:02:16.856Z,18.3
2017-08-26T00:03:18.962Z,18.3
2017-08-26T00:04:21.371Z,18.3
2017-08-26T00:05:24.147Z,18.3
2017-08-26T00:06:26.322Z,18.4
2017-08-26T00:07:28.404Z,18.2
2017-08-26T00:08:30.555Z,18.1
2017-08-26T00:09:32.946Z,18.1
2017-08-26T00:10:35.166Z,18.2
2017-08-26T00:11:37.353Z,18.3
2017-08-26T00:12:39.502Z,18.4
2017-08-26T00:13:41.612Z,18.4
2017-08-26T00:14:44.061Z,18.4
2017-08-26T00:15:46.145Z,18.4
2017-08-26T00:16:48.185Z,18.5
2017-08-26T00:17:50.204Z,18.4
2017-08-26T00:18:52.303Z,18.5
2017-08-26T00:19:54.720Z,18.5
2017-08-26T00:20:56.828Z,18.5
2017-08-26T00:21:58.887Z,18.5
2017-08-26T00:23:00.950Z,18.5
2017-08-26T00:24:03.081Z,18.4
2017-08-26T00:25:05.526Z,18.5
2017-08-26T00:26:07.561Z,18.4
2017-08-26T00:27:09.652Z,18.3
2017-08-26T00:28:11.691Z,18.3
2017-08-26T00:29:13.846Z,18.2
2017-08-26T00:30:16.351Z,18.3
2017-08-26T00:31:18.428Z,18.3
2017-08-26T00:32:20.592Z,18.2
2017-08-26T00:33:22.690Z,18
2017-08-26T00:34:24.815Z,18.3
2017-08-26T00:35:27.312Z,18.2
2017-08-26T00:36:29.433Z,18.3
2017-08-26T00:37:31.526Z,18.2
2017-08-26T00:38:33.555Z,18
2017-08-26T00:39:35.599Z,18.1
2017-08-26T00:40:37.984Z,18.2
2017-08-26T00:41:40.092Z,18.1
2017-08-26T00:42:42.227Z,18.2
2017-08-26T00:43:44.293Z,18.4
2017-08-26T00:44:46.415Z,18.4
2017-08-26T00:45:49.066Z,18.4
2017-08-26T00:46:51.150Z,18.5
2017-08-26T00:47:53.206Z,18.3
2017-08-26T00:48:55.246Z,18.3
2017-08-26T00:49:57.415Z,18.2
2017-08-26T00:50:59.855Z,18
2017-08-26T00:52:01.931Z,18.1
2017-08-26T00:53:04.247Z,18
2017-08-26T00:54:06.424Z,18
2017-08-26T00:55:08.518Z,17.9
2017-08-26T00:56:10.997Z,18.2
2017-08-26T00:57:13.086Z,18.2
2017-08-26T00:58:15.209Z,18.2
2017-08-26T00:59:17.280Z,18.3
2017-08-26T01:00:19.347Z,18.3
2017-08-26T01:01:21.813Z,18.4
2017-08-26T01:02:23.945Z,18.3
2017-08-26T01:03:26.068Z,18.4
2017-08-26T01:04:28.176Z,18.2
2017-08-26T01:05:30.253Z,18.3
2017-08-26T01:06:32.591Z,18.3
2017-08-26T01:07:34.718Z,18.3
2017-08-26T01:08:36.800Z,18.4
2017-08-26T01:09:38.914Z,18.5
2017-08-26T01:10:40.999Z,18.4
2017-08-26T01:11:43.428Z,18.1
2017-08-26T01:12:45.582Z,18.2
2017-08-26T01:13:47.616Z,18.3
2017-08-26T01:14:49.711Z,18.3
2017-08-26T01:15:51.758Z,18.1
2017-08-26T01:16:54.200Z,17.9
2017-08-26T01:17:56.293Z,17.7
2017-08-26T01:18:58.378Z,17.6
2017-08-26T01:20:00.507Z,17.9
2017-08-26T01:21:03.585Z,18
2017-08-26T01:22:06.034Z,18.1
2017-08-26T01:23:08.115Z,18.1
2017-08-26T01:24:10.196Z,18
2017-08-26T01:25:12.303Z,18.1
2017-08-26T01:26:15.360Z,18.2
2017-08-26T01:27:17.690Z,18.3
2017-08-26T01:28:19.781Z,18.2
2017-08-26T01:29:21.906Z,18.2
2017-08-26T01:30:24.007Z,18.3
2017-08-26T01:31:26.098Z,18.2
2017-08-26T01:32:28.507Z,18.1
2017-08-26T01:33:30.604Z,18.1
2017-08-26T01:34:32.738Z,18.2
2017-08-26T01:35:34.833Z,18.3
2017-08-26T01:36:36.943Z,18.1
2017-08-26T01:37:39.404Z,18
2017-08-26T01:38:41.572Z,18.2
2017-08-26T01:39:43.670Z,18.2
2017-08-26T01:40:45.701Z,18
2017-08-26T01:41:47.810Z,18.1
2017-08-26T01:42:50.321Z,18.2
2017-08-26T01:43:52.435Z,18.3
2017-08-26T01:44:54.940Z,18.1
2017-08-26T01:45:57.117Z,18.2
2017-08-26T01:46:59.185Z,18.1
2017-08-26T01:48:01.602Z,18.1
2017-08-26T01:49:03.673Z,18.1
2017-08-26T01:50:05.776Z,18
2017-08-26T01:51:07.950Z,18
2017-08-26T01:52:10.083Z,17.8
2017-08-26T01:53:12.548Z,17.7
2017-08-26T01:54:14.716Z,17.7
2017-08-26T01:55:16.839Z,17.8
2017-08-26T01:56:18.950Z,17.8
2017-08-26T01:57:20.993Z,17.7
2017-08-26T01:58:23.343Z,17.7
2017-08-26T01:59:25.464Z,17.6
2017-08-26T02:00:27.539Z,17.6
2017-08-26T02:01:29.628Z,17.6
2017-08-26T02:02:31.694Z,17.8
2017-08-26T02:03:34.072Z,17.8
2017-08-26T02:04:36.159Z,17.9
2017-08-26T02:05:38.270Z,17.8
2017-08-26T02:06:40.371Z,17.7
2017-08-26T02:07:42.489Z,17.8
2017-08-26T02:08:44.930Z,17.8
2017-08-26T02:09:47.080Z,17.8
2017-08-26T02:10:49.199Z,17.8
2017-08-26T02:11:51.340Z,17.7
2017-08-26T02:12:53.548Z,17.7
2017-08-26T02:13:56.031Z,17.6
2017-08-26T02:14:58.122Z,17.7
2017-08-26T02:16:00.187Z,17.7
2017-08-26T02:17:02.384Z,17.7
2017-08-26T02:18:04.476Z,17.8
2017-08-26T02:19:06.831Z,17.7
2017-08-26T02:20:08.956Z,17.7
2017-08-26T02:21:11.057Z,17.8
2017-08-26T02:22:13.207Z,17.7
2017-08-26T02:23:15.322Z,17.8
2017-08-26T02:24:17.703Z,17.9
2017-08-26T02:25:19.766Z,17.8
2017-08-26T02:26:21.900Z,17.8
2017-08-26T02:27:24.037Z,17.8
2017-08-26T02:28:26.079Z,17.9
2017-08-26T02:29:28.492Z,17.9
2017-08-26T02:30:30.618Z,17.9
2017-08-26T02:31:32.695Z,17.8
2017-08-26T02:32:34.849Z,17.8
2017-08-26T02:33:36.966Z,17.8
2017-08-26T02:34:39.478Z,17.8
2017-08-26T02:35:41.554Z,17.8
2017-08-26T02:36:43.638Z,17.8
2017-08-26T02:37:45.740Z,17.9
2017-08-26T02:38:47.824Z,17.9
2017-08-26T02:39:50.242Z,17.8
2017-08-26T02:40:52.362Z,17.7
2017-08-26T02:41:54.389Z,17.5
2017-08-26T02:42:56.504Z,17.7
2017-08-26T02:43:58.609Z,17.5
2017-08-26T02:45:01.028Z,17.4
2017-08-26T02:46:03.175Z,17.5
2017-08-26T02:47:05.288Z,17.6
2017-08-26T02:48:07.414Z,17.7
2017-08-26T02:49:10.165Z,17.7
2017-08-26T02:50:12.563Z,17.7
2017-08-26T02:51:14.635Z,17.8
2017-08-26T02:52:16.658Z,17.9
2017-08-26T02:53:18.761Z,17.8
2017-08-26T02:54:20.853Z,17.7
2017-08-26T02:55:23.372Z,17.8
2017-08-26T02:56:25.448Z,17.9
2017-08-26T02:57:27.518Z,18
2017-08-26T02:58:29.633Z,18
2017-08-26T02:59:31.731Z,17.7
2017-08-26T03:00:34.159Z,17.7
2017-08-26T03:01:36.262Z,17.7
2017-08-26T03:02:38.380Z,17.7
2017-08-26T03:03:40.486Z,17.8
2017-08-26T03:04:42.656Z,17.7
2017-08-26T03:05:45.093Z,17.8
2017-08-26T03:06:47.180Z,17.9
2017-08-26T03:07:49.295Z,17.8
2017-08-26T03:08:51.369Z,17.7
2017-08-26T03:09:53.608Z,17.7
2017-08-26T03:10:56.133Z,17.8
2017-08-26T03:11:58.192Z,17.7
2017-08-26T03:13:00.251Z,17.5
2017-08-26T03:14:02.357Z,17.6
2017-08-26T03:15:04.433Z,17.8
2017-08-26T03:16:06.866Z,17.7
2017-08-26T03:17:08.970Z,17.7
2017-08-26T03:18:11.090Z,17.7
2017-08-26T03:19:13.245Z,17.8
2017-08-26T03:20:15.361Z,17.6
2017-08-26T03:21:17.776Z,17.7
2017-08-26T03:22:19.837Z,17.6
2017-08-26T03:23:21.969Z,17.5
2017-08-26T03:24:24.065Z,17.5
2017-08-26T03:25:26.227Z,17.5
2017-08-26T03:26:28.620Z,17.4
2017-08-26T03:27:30.668Z,17.5
2017-08-26T03:28:32.760Z,17.6
2017-08-26T03:29:34.818Z,17.6
2017-08-26T03:30:36.858Z,17.5
2017-08-26T03:31:39.209Z,17.4
2017-08-26T03:32:41.243Z,17.4
2017-08-26T03:33:43.280Z,17.5
2017-08-26T03:34:45.415Z,17.4
2017-08-26T03:35:47.493Z,17.5
2017-08-26T03:36:49.884Z,17.4
2017-08-26T03:37:52.025Z,17.4
2017-08-26T03:38:54.136Z,17.4
2017-08-26T03:39:56.274Z,17.5
2017-08-26T03:40:58.458Z,17.5
2017-08-26T03:42:00.871Z,17.6
2017-08-26T03:43:02.981Z,17.5
2017-08-26T03:44:05.016Z,17.4
2017-08-26T03:45:07.099Z,17.5
2017-08-26T03:46:09.192Z,17.4
2017-08-26T03:47:11.550Z,17.4
2017-08-26T03:48:13.695Z,17.5
2017-08-26T03:49:15.961Z,17.6
2017-08-26T03:50:18.018Z,17.4
2017-08-26T03:51:20.081Z,17.3
2017-08-26T03:52:22.478Z,17.2
2017-08-26T03:53:24.562Z,17.4
2017-08-26T03:54:26.643Z,17.4
2017-08-26T03:55:28.655Z,17.3
2017-08-26T03:56:30.721Z,17.2
2017-08-26T03:57:33.102Z,17
2017-08-26T03:58:35.210Z,17.1
2017-08-26T03:59:37.276Z,17.2
2017-08-26T04:00:39.423Z,17.4
2017-08-26T04:01:41.531Z,17.4
2017-08-26T04:02:44.018Z,17.2
2017-08-26T04:03:46.184Z,17.2
2017-08-26T04:04:48.263Z,17.2
2017-08-26T04:05:50.351Z,17.1
2017-08-26T04:06:52.441Z,17.2
2017-08-26T04:07:54.771Z,17.1
2017-08-26T04:08:56.867Z,17.2
2017-08-26T04:09:58.973Z,17.2
2017-08-26T04:11:01.130Z,17.2
2017-08-26T04:12:03.219Z,17.2
2017-08-26T04:13:05.610Z,17.1
2017-08-26T04:14:07.710Z,17.2
2017-08-26T04:15:09.889Z,17.2
2017-08-26T04:16:12.012Z,17.1
2017-08-26T04:17:14.117Z,17.1
2017-08-26T04:18:16.516Z,17.2
2017-08-26T04:19:18.585Z,17.2
2017-08-26T04:20:20.659Z,17.2
2017-08-26T04:21:22.800Z,17.2
2017-08-26T04:22:24.891Z,17.4
2017-08-26T04:23:27.329Z,17.2
2017-08-26T04:24:29.436Z,17.2
2017-08-26T04:25:31.773Z,17
2017-08-26T04:26:33.916Z,17.1
2017-08-26T04:27:36.000Z,17.1
2017-08-26T04:28:38.513Z,17.2
2017-08-26T04:29:40.581Z,17.3
2017-08-26T04:30:42.694Z,17.3
2017-08-26T04:31:44.781Z,17.2
2017-08-26T04:32:46.842Z,17.1
2017-08-26T04:33:49.299Z,17.1
2017-08-26T04:34:51.428Z,17.1
2017-08-26T04:35:53.491Z,17
2017-08-26T04:36:55.602Z,17.1
2017-08-26T04:37:57.759Z,17.1
2017-08-26T04:39:00.193Z,17.1
2017-08-26T04:40:02.358Z,17
2017-08-26T04:41:04.415Z,17
2017-08-26T04:42:06.503Z,17
2017-08-26T04:43:09.538Z,17
2017-08-26T04:44:11.932Z,17
2017-08-26T04:45:16.140Z,17
2017-08-26T04:46:18.345Z,16.9
2017-08-26T04:47:20.448Z,16.9
2017-08-26T04:48:22.576Z,17
2017-08-26T04:49:24.968Z,17.2
2017-08-26T04:50:27.105Z,17.2
2017-08-26T04:51:29.183Z,17.1
2017-08-26T04:52:31.306Z,16.8
2017-08-26T04:53:33.355Z,17
2017-08-26T04:54:35.841Z,16.9
2017-08-26T04:55:37.993Z,17
2017-08-26T04:56:40.086Z,17.1
2017-08-26T04:57:42.183Z,17.2
2017-08-26T04:58:44.241Z,17.2
2017-08-26T04:59:46.635Z,17.2
2017-08-26T05:00:48.660Z,17.3
2017-08-26T05:01:50.732Z,17.3
2017-08-26T05:02:52.868Z,17.4
2017-08-26T05:03:54.912Z,17.3
2017-08-26T05:04:57.286Z,17.2
2017-08-26T05:05:59.430Z,17.3
2017-08-26T05:07:01.546Z,17.2
2017-08-26T05:08:03.737Z,17.3
2017-08-26T05:09:05.858Z,17.3
2017-08-26T05:10:08.284Z,17.2
2017-08-26T05:11:10.398Z,17.2
2017-08-26T05:12:12.484Z,17.2
2017-08-26T05:13:14.563Z,17.2
2017-08-26T05:14:16.694Z,17.4
2017-08-26T05:15:18.991Z,17.3
2017-08-26T05:16:21.097Z,17.5
2017-08-26T05:17:23.253Z,17.4
2017-08-26T05:18:25.667Z,17.2
2017-08-26T05:19:28.466Z,17.3
2017-08-26T05:20:30.963Z,17.5
2017-08-26T05:21:33.049Z,17.5
2017-08-26T05:22:35.153Z,17.7
2017-08-26T05:23:37.208Z,17.7
2017-08-26T05:24:39.325Z,17.6
2017-08-26T05:25:41.865Z,17.7
2017-08-26T05:26:43.972Z,17.6
2017-08-26T05:27:46.083Z,17.5
2017-08-26T05:28:48.176Z,17.6
2017-08-26T05:29:50.349Z,17.6
2017-08-26T05:30:52.739Z,17.6
2017-08-26T05:31:54.858Z,17.5
2017-08-26T05:32:57.013Z,17.6
2017-08-26T05:33:59.158Z,17.7
2017-08-26T05:35:01.291Z,17.7
2017-08-26T05:36:04.514Z,17.6
2017-08-26T05:37:06.675Z,17.6
2017-08-26T05:38:08.735Z,17.6
2017-08-26T05:39:10.769Z,17.6
2017-08-26T05:40:12.843Z,17.5
2017-08-26T05:41:15.254Z,17.5
2017-08-26T05:42:17.537Z,17.5
2017-08-26T05:43:19.711Z,17.6
2017-08-26T05:44:21.811Z,17.7
2017-08-26T05:45:23.945Z,17.6
2017-08-26T05:46:26.394Z,17.5
2017-08-26T05:47:28.490Z,17.6
2017-08-26T05:48:30.575Z,17.6
2017-08-26T05:49:32.665Z,17.5
2017-08-26T05:50:34.769Z,17.4
2017-08-26T05:51:38.074Z,17.4
2017-08-26T05:52:41.193Z,17.6
2017-08-26T05:53:47.902Z,17.5
2017-08-26T05:54:49.944Z,17.6
2017-08-26T05:55:52.011Z,17.7
2017-08-26T05:56:54.435Z,17.6
2017-08-26T05:57:56.556Z,17.6
2017-08-26T05:58:58.649Z,17.3
2017-08-26T06:00:00.763Z,17.5
2017-08-26T06:01:02.880Z,17.3
2017-08-26T06:02:05.347Z,17.4
2017-08-26T06:03:07.425Z,17.5
2017-08-26T06:04:09.532Z,17.3
2017-08-26T06:05:12.712Z,17.3
2017-08-26T06:06:14.819Z,17.4
2017-08-26T06:07:17.360Z,17.4
2017-08-26T06:08:19.438Z,17.4
2017-08-26T06:09:21.517Z,17.4
2017-08-26T06:10:23.699Z,17.5
2017-08-26T06:11:25.875Z,17.4
2017-08-26T06:12:28.356Z,17.5
2017-08-26T06:13:30.701Z,17.6
2017-08-26T06:14:33.483Z,17.6
2017-08-26T06:15:35.718Z,17.4
2017-08-26T06:16:37.840Z,17.6
2017-08-26T06:17:40.318Z,17.5
2017-08-26T06:18:42.424Z,17.4
2017-08-26T06:19:44.506Z,17.5
2017-08-26T06:20:46.594Z,17.5
2017-08-26T06:21:48.679Z,17.5
2017-08-26T06:22:51.191Z,17.5
2017-08-26T06:23:53.245Z,17.5
2017-08-26T06:24:55.397Z,17.6
2017-08-26T06:25:57.498Z,17.7
2017-08-26T06:26:59.832Z,17.7
2017-08-26T06:28:02.220Z,17.7
2017-08-26T06:29:04.434Z,17.7
2017-08-26T06:30:06.527Z,17.8
2017-08-26T06:31:08.617Z,17.6
2017-08-26T06:32:10.733Z,17.6
2017-08-26T06:33:13.130Z,17.6
2017-08-26T06:34:15.254Z,17.6
2017-08-26T06:35:17.324Z,17.7
2017-08-26T06:36:19.504Z,17.6
2017-08-26T06:37:21.605Z,17.6
2017-08-26T06:38:24.043Z,17.8
2017-08-26T06:39:26.105Z,17.8
2017-08-26T06:40:28.718Z,17.8
2017-08-26T06:41:30.912Z,17.8
2017-08-26T06:42:33.759Z,17.8
2017-08-26T06:43:36.200Z,17.9
2017-08-26T06:44:38.271Z,17.8
2017-08-26T06:45:40.405Z,17.8
2017-08-26T06:46:42.518Z,17.8
2017-08-26T06:47:44.945Z,17.8
2017-08-26T06:48:47.422Z,17.9
2017-08-26T06:49:49.616Z,17.9
2017-08-26T06:50:51.793Z,17.9
2017-08-26T06:51:53.862Z,17.9
2017-08-26T06:52:55.943Z,18
2017-08-26T06:53:58.395Z,18
2017-08-26T06:55:00.452Z,17.9
2017-08-26T06:56:02.548Z,17.9
2017-08-26T06:57:04.677Z,17.9
2017-08-26T06:58:06.783Z,18
2017-08-26T06:59:09.213Z,18
2017-08-26T07:00:11.300Z,18
2017-08-26T07:01:13.415Z,18
2017-08-26T07:02:15.556Z,18
2017-08-26T07:03:17.614Z,18.1
2017-08-26T07:04:20.065Z,18.1
2017-08-26T07:05:22.119Z,18.1
2017-08-26T07:06:24.231Z,18.1
2017-08-26T07:07:26.409Z,18.1
2017-08-26T07:08:28.510Z,18.3
2017-08-26T07:09:31.467Z,18.2
2017-08-26T07:10:33.609Z,18.3
2017-08-26T07:11:35.756Z,18.4
2017-08-26T07:12:37.878Z,18.4
2017-08-26T07:13:40.092Z,18.4
2017-08-26T07:14:42.558Z,18.4
2017-08-26T07:15:44.684Z,18.6
2017-08-26T07:16:46.791Z,18.8
2017-08-26T07:17:48.875Z,19
2017-08-26T07:18:50.985Z,19
2017-08-26T07:19:53.492Z,19
2017-08-26T07:20:55.562Z,19.3
2017-08-26T07:21:57.654Z,19.3
2017-08-26T07:22:59.796Z,19.1
2017-08-26T07:24:01.923Z,18.9
2017-08-26T07:25:04.355Z,18.9
2017-08-26T07:26:06.434Z,18.9
2017-08-26T07:27:08.482Z,19.1
2017-08-26T07:28:10.583Z,19.2
2017-08-26T07:29:12.704Z,18.9
2017-08-26T07:30:17.191Z,19
2017-08-26T07:31:20.309Z,19
2017-08-26T07:32:22.442Z,18.9
2017-08-26T07:33:24.482Z,19.1
2017-08-26T07:34:26.614Z,19.1
2017-08-26T07:35:29.739Z,19.1
2017-08-26T07:36:31.814Z,19
2017-08-26T07:37:33.975Z,19.1
2017-08-26T07:38:36.110Z,19.1
2017-08-26T07:39:38.531Z,19.2
2017-08-26T07:40:40.986Z,19.2
2017-08-26T07:41:43.041Z,19.1
2017-08-26T07:42:45.126Z,19
2017-08-26T07:43:47.218Z,19.2
2017-08-26T07:44:49.358Z,19.2
2017-08-26T07:45:51.830Z,19.3
2017-08-26T07:46:53.850Z,19.5
2017-08-26T07:47:55.881Z,19.5
2017-08-26T07:48:58.073Z,19.6
2017-08-26T07:50:00.369Z,19.8
2017-08-26T07:51:02.828Z,19.9
2017-08-26T07:52:05.038Z,19.8
2017-08-26T07:53:07.113Z,20.1
2017-08-26T07:54:09.220Z,20.1
2017-08-26T07:55:11.357Z,19.9
2017-08-26T07:56:14.420Z,19.9
2017-08-26T07:57:16.517Z,20.3
2017-08-26T07:58:18.702Z,20.5
2017-08-26T07:59:20.771Z,20.7
2017-08-26T08:00:22.882Z,20.5
2017-08-26T08:01:25.387Z,20.9
2017-08-26T08:02:27.494Z,20.9
2017-08-26T08:03:29.579Z,21
2017-08-26T08:04:31.693Z,20.9
2017-08-26T08:05:34.830Z,21
2017-08-26T08:06:37.311Z,21.4
2017-08-26T08:07:39.390Z,21.4
2017-08-26T08:08:41.496Z,21.4
2017-08-26T08:09:43.567Z,21.4
2017-08-26T08:10:45.688Z,21.1
2017-08-26T08:11:48.193Z,21.1
2017-08-26T08:12:50.325Z,20.7
2017-08-26T08:13:52.455Z,20.8
2017-08-26T08:14:54.612Z,20.7
2017-08-26T08:15:56.704Z,20.7
2017-08-26T08:16:59.276Z,21
2017-08-26T08:18:01.400Z,21.5
2017-08-26T08:19:03.555Z,21.8
2017-08-26T08:20:05.703Z,22.1
2017-08-26T08:21:07.797Z,22.7
2017-08-26T08:22:10.226Z,23.1
2017-08-26T08:23:12.324Z,23.3
2017-08-26T08:24:14.477Z,23.6
2017-08-26T08:25:16.578Z,23.5
2017-08-26T08:26:18.627Z,23.2
2017-08-26T08:27:21.035Z,22.9
2017-08-26T08:28:23.194Z,22.8
2017-08-26T08:29:25.318Z,22.9
2017-08-26T08:30:27.497Z,22.8
2017-08-26T08:31:29.621Z,22.4
2017-08-26T08:32:32.062Z,22.2
2017-08-26T08:33:34.198Z,22
2017-08-26T08:34:36.351Z,21.5
2017-08-26T08:35:39.080Z,21.4
2017-08-26T08:36:41.216Z,21.5
2017-08-26T08:37:44.245Z,21.4
2017-08-26T08:38:46.373Z,21.4
2017-08-26T08:39:48.422Z,21.2
2017-08-26T08:40:50.497Z,21.2
2017-08-26T08:41:52.610Z,21.2
2017-08-26T08:42:54.988Z,21.2
2017-08-26T08:43:57.090Z,21.2
2017-08-26T08:44:59.208Z,21.1
2017-08-26T08:46:01.694Z,21.1
2017-08-26T08:47:03.801Z,21
2017-08-26T08:48:06.405Z,21.1
2017-08-26T08:49:08.479Z,21
2017-08-26T08:50:10.590Z,21
2017-08-26T08:51:12.684Z,20.9
2017-08-26T08:52:14.938Z,20.8
2017-08-26T08:53:17.330Z,20.8
2017-08-26T08:54:19.494Z,20.8
2017-08-26T08:55:21.630Z,20.9
2017-08-26T08:56:23.826Z,21
2017-08-26T08:57:25.988Z,21
2017-08-26T08:58:28.472Z,20.9
2017-08-26T08:59:30.610Z,20.9
2017-08-26T09:00:32.775Z,20.9
2017-08-26T09:01:34.919Z,21
2017-08-26T09:02:37.777Z,20.8
2017-08-26T09:03:40.247Z,20.9
2017-08-26T09:04:42.448Z,21
2017-08-26T09:05:44.596Z,21
2017-08-26T09:06:46.665Z,21
2017-08-26T09:07:48.735Z,21
2017-08-26T09:08:51.235Z,21.1
2017-08-26T09:09:54.045Z,21.2
2017-08-26T09:10:56.184Z,21.1
2017-08-26T09:11:58.342Z,21.1
2017-08-26T09:13:00.469Z,21.2
2017-08-26T09:14:03.002Z,21.4
2017-08-26T09:15:05.101Z,21.5
2017-08-26T09:16:07.249Z,21.6
2017-08-26T09:17:09.401Z,21.8
2017-08-26T09:18:11.554Z,21.5
2017-08-26T09:19:14.063Z,21.7
2017-08-26T09:20:16.118Z,21.8
2017-08-26T09:21:18.319Z,21.6
2017-08-26T09:22:20.388Z,21.5
2017-08-26T09:23:22.505Z,21.4
2017-08-26T09:24:24.962Z,21.3
2017-08-26T09:25:27.082Z,21.2
2017-08-26T09:26:29.171Z,21.1
2017-08-26T09:27:31.826Z,21.3
2017-08-26T09:28:33.962Z,21.2
2017-08-26T09:29:36.435Z,21
2017-08-26T09:30:38.573Z,21.2
2017-08-26T09:31:41.353Z,21.2
2017-08-26T09:32:44.794Z,21.2
2017-08-26T09:33:47.686Z,21.3
2017-08-26T09:34:50.816Z,21.3
2017-08-26T09:35:53.027Z,21.3
2017-08-26T09:36:55.169Z,21.3
2017-08-26T09:37:57.293Z,21.3
2017-08-26T09:38:59.350Z,21.1
2017-08-26T09:40:02.032Z,21.2
2017-08-26T09:41:04.218Z,21.2
2017-08-26T09:42:06.331Z,21.3
2017-08-26T09:43:08.495Z,21.2
2017-08-26T09:44:10.614Z,21.2
2017-08-26T09:45:13.058Z,21.2
2017-08-26T09:46:15.166Z,21.1
2017-08-26T09:47:17.293Z,21.2
2017-08-26T09:48:19.460Z,21.3
2017-08-26T09:49:21.810Z,21.2
2017-08-26T09:50:24.454Z,21.3
2017-08-26T09:51:26.675Z,21.3
2017-08-26T09:52:28.813Z,21.2
2017-08-26T09:53:30.900Z,21.2
2017-08-26T09:54:33.013Z,21.3
2017-08-26T09:55:35.412Z,21.3
2017-08-26T09:56:37.522Z,21.4
2017-08-26T09:57:42.648Z,21.4
2017-08-26T09:58:45.336Z,21.5
2017-08-26T09:59:49.415Z,21.5
2017-08-26T10:00:52.193Z,21.8
2017-08-26T10:01:54.349Z,21.9
2017-08-26T10:02:57.049Z,22.2
2017-08-26T10:03:59.311Z,22.1
2017-08-26T10:05:01.408Z,22
2017-08-26T10:06:03.874Z,21.9
2017-08-26T10:07:05.922Z,21.7
2017-08-26T10:08:08.011Z,21.8
2017-08-26T10:09:10.116Z,21.7
2017-08-26T10:10:12.448Z,21.7
2017-08-26T10:11:18.879Z,21.7
2017-08-26T10:12:22.288Z,21.8
2017-08-26T10:13:24.554Z,22
2017-08-26T10:14:27.419Z,22.1
2017-08-26T10:15:29.623Z,22.1
2017-08-26T10:16:32.133Z,22.1
2017-08-26T10:17:34.277Z,22
2017-08-26T10:18:36.382Z,22
2017-08-26T10:19:38.463Z,22.1
2017-08-26T10:20:40.557Z,22.2
2017-08-26T10:21:43.047Z,22.2
2017-08-26T10:22:45.208Z,22.1
2017-08-26T10:23:47.336Z,22.2
2017-08-26T10:24:49.407Z,22.4
2017-08-26T10:25:51.505Z,22.4
2017-08-26T10:26:53.933Z,22.5
2017-08-26T10:27:56.091Z,22.5
2017-08-26T10:28:58.217Z,22.5
2017-08-26T10:30:00.380Z,22.8
2017-08-26T10:31:02.551Z,23
2017-08-26T10:32:04.989Z,23.4
2017-08-26T10:33:07.160Z,23.5
2017-08-26T10:34:09.229Z,23.4
2017-08-26T10:35:11.439Z,23.5
2017-08-26T10:36:13.550Z,23.8
2017-08-26T10:37:16.053Z,24.1
2017-08-26T10:38:18.166Z,24.2
2017-08-26T10:39:20.281Z,24.4
2017-08-26T10:40:22.410Z,24.6
2017-08-26T10:41:24.546Z,24.5
2017-08-26T10:42:26.982Z,24.4
2017-08-26T10:43:29.131Z,24.3
2017-08-26T10:44:31.266Z,24.7
2017-08-26T10:45:33.357Z,25.1
2017-08-26T10:46:35.509Z,25.2
2017-08-26T10:47:38.056Z,25.5
2017-08-26T10:48:40.253Z,25.4
2017-08-26T10:49:42.379Z,25.5
2017-08-26T10:50:44.570Z,25.8
2017-08-26T10:51:48.825Z,25.5
2017-08-26T10:52:51.305Z,25.6
2017-08-26T10:53:53.401Z,25.5
2017-08-26T10:54:55.504Z,25.4
2017-08-26T10:55:57.678Z,25.5
2017-08-26T10:56:59.851Z,25.4
2017-08-26T10:58:02.270Z,25.1
2017-08-26T10:59:05.602Z,25.2
2017-08-26T11:00:07.708Z,25.5
2017-08-26T11:01:09.919Z,25
2017-08-26T11:02:12.081Z,25.1
2017-08-26T11:03:14.598Z,25.1
2017-08-26T11:04:17.447Z,25.5
2017-08-26T11:05:19.694Z,25.8
2017-08-26T11:06:21.856Z,25.8
2017-08-26T11:07:23.979Z,25.3
2017-08-26T11:08:26.360Z,25.4
2017-08-26T11:09:28.528Z,25.7
2017-08-26T11:10:30.730Z,25.6
2017-08-26T11:11:32.876Z,25.4
2017-08-26T11:12:37.201Z,25.4
2017-08-26T11:13:39.600Z,25.3
2017-08-26T11:14:41.807Z,25.2
2017-08-26T11:15:43.943Z,25.2
2017-08-26T11:16:47.064Z,25.3
2017-08-26T11:17:49.453Z,25.2
2017-08-26T11:18:51.925Z,25.3
2017-08-26T11:19:54.326Z,24.8
2017-08-26T11:20:56.414Z,25
2017-08-26T11:21:58.477Z,25.1
2017-08-26T11:23:00.606Z,25.5
2017-08-26T11:24:03.222Z,25.4
2017-08-26T11:25:06.003Z,24.8
2017-08-26T11:26:08.150Z,25
2017-08-26T11:27:10.418Z,25
2017-08-26T11:28:12.572Z,24.9
2017-08-26T11:29:15.140Z,25
2017-08-26T11:30:17.291Z,25.4
2017-08-26T11:31:19.482Z,25.2
2017-08-26T11:32:21.619Z,25
2017-08-26T11:33:23.747Z,24.7
2017-08-26T11:34:26.134Z,24.8
2017-08-26T11:35:28.319Z,24.8
2017-08-26T11:36:30.449Z,24.6
2017-08-26T11:37:32.565Z,24.4
2017-08-26T11:38:35.485Z,24.1
2017-08-26T11:39:37.871Z,24.3
2017-08-26T11:40:39.987Z,24.7
2017-08-26T11:41:42.133Z,24.8
2017-08-26T11:42:44.334Z,24.9
2017-08-26T11:43:46.467Z,24.8
2017-08-26T11:44:48.966Z,24.7
2017-08-26T11:45:51.062Z,24.5
2017-08-26T11:46:56.136Z,25
2017-08-26T11:47:58.202Z,25.3
2017-08-26T11:49:00.262Z,25.4
2017-08-26T11:50:02.712Z,25.3
2017-08-26T11:51:04.806Z,25.3
2017-08-26T11:52:06.957Z,25.4
2017-08-26T11:53:09.022Z,25.3
2017-08-26T11:54:11.846Z,25.4
2017-08-26T11:55:14.272Z,24.9
2017-08-26T11:56:16.503Z,24.7
2017-08-26T11:57:18.691Z,24.3
2017-08-26T11:58:20.851Z,24.5
2017-08-26T11:59:23.141Z,24.8
2017-08-26T12:00:25.610Z,24.7
2017-08-26T12:01:27.702Z,24.7
2017-08-26T12:02:29.782Z,24.8
2017-08-26T12:03:32.381Z,25
2017-08-26T12:04:34.510Z,25
2017-08-26T12:05:36.905Z,24.6
2017-08-26T12:06:38.973Z,24.9
2017-08-26T12:07:41.239Z,24.7
2017-08-26T12:08:43.313Z,24.9
2017-08-26T12:09:45.522Z,25
2017-08-26T12:10:48.273Z,25.1
2017-08-26T12:11:50.400Z,25
2017-08-26T12:12:52.592Z,25.1
2017-08-26T12:13:54.750Z,25.2
2017-08-26T12:14:57.646Z,25.4
2017-08-26T12:16:00.093Z,25.4
2017-08-26T12:17:02.176Z,25.2
2017-08-26T12:18:04.768Z,25.3
2017-08-26T12:19:06.863Z,25.1
2017-08-26T12:20:09.002Z,25.1
2017-08-26T12:21:11.408Z,25.1
2017-08-26T12:22:13.546Z,25.1
2017-08-26T12:23:15.729Z,25.1
2017-08-26T12:24:17.916Z,25.1
2017-08-26T12:25:20.160Z,25.3
2017-08-26T12:26:22.885Z,25.3
2017-08-26T12:27:25.036Z,25.1
2017-08-26T12:28:27.451Z,25.1
2017-08-26T12:29:29.590Z,24.8
2017-08-26T12:30:31.842Z,24.7
2017-08-26T12:31:34.212Z,24.5
2017-08-26T12:32:36.332Z,24.7
2017-08-26T12:33:38.516Z,25
2017-08-26T12:34:40.700Z,25.2
2017-08-26T12:35:42.913Z,25.3
2017-08-26T12:36:45.362Z,25.2
2017-08-26T12:37:47.444Z,24.8
2017-08-26T12:38:49.635Z,24.5
2017-08-26T12:39:51.830Z,24.7
2017-08-26T12:40:54.027Z,25
2017-08-26T12:41:56.409Z,25.1
2017-08-26T12:42:58.591Z,25.2
2017-08-26T12:44:00.813Z,25
2017-08-26T12:45:03.188Z,25
2017-08-26T12:46:05.507Z,24.9
2017-08-26T12:47:07.883Z,24.9
2017-08-26T12:48:10.020Z,24.8
2017-08-26T12:49:12.254Z,25.1
2017-08-26T12:50:14.333Z,25
2017-08-26T12:51:16.478Z,25
2017-08-26T12:52:18.966Z,25
2017-08-26T12:53:21.109Z,25.3
2017-08-26T12:54:23.229Z,25.4
2017-08-26T12:55:25.424Z,24.9
2017-08-26T12:56:27.615Z,24.8
2017-08-26T12:57:30.105Z,24.8
2017-08-26T12:58:32.284Z,24.5
2017-08-26T12:59:34.430Z,24.7
2017-08-26T13:00:36.611Z,24.8
2017-08-26T13:01:38.736Z,24.5
2017-08-26T13:02:41.128Z,24.6
2017-08-26T13:03:43.209Z,24.7
2017-08-26T13:04:45.275Z,24.8
2017-08-26T13:05:47.414Z,24.8
2017-08-26T13:06:49.530Z,24.9
2017-08-26T13:07:52.023Z,24.7
2017-08-26T13:08:54.163Z,24.7
2017-08-26T13:09:56.715Z,24.6
2017-08-26T13:10:58.816Z,24.6
2017-08-26T13:12:00.933Z,24.7
2017-08-26T13:13:03.429Z,24.7
2017-08-26T13:14:05.503Z,24.7
2017-08-26T13:15:07.619Z,24.7
2017-08-26T13:16:09.762Z,25
2017-08-26T13:17:12.098Z,25
2017-08-26T13:18:14.531Z,25.1
2017-08-26T13:19:16.621Z,25.2
2017-08-26T13:20:19.020Z,25.2
2017-08-26T13:21:22.257Z,25.4
2017-08-26T13:22:24.474Z,25.4
2017-08-26T13:23:26.898Z,25.4
2017-08-26T13:24:29.065Z,25.4
2017-08-26T13:25:31.190Z,25.3
2017-08-26T13:26:33.287Z,25.1
2017-08-26T13:27:35.416Z,25.3
2017-08-26T13:28:37.895Z,25.4
2017-08-26T13:29:40.103Z,25
2017-08-26T13:30:42.490Z,25
2017-08-26T13:31:44.637Z,25.2
2017-08-26T13:32:47.424Z,25.4
2017-08-26T13:33:50.835Z,25.5
2017-08-26T13:34:52.946Z,25.5
2017-08-26T13:35:55.714Z,25.3
2017-08-26T13:36:57.829Z,25.5
2017-08-26T13:37:59.986Z,25.6
2017-08-26T13:39:02.380Z,25.4
2017-08-26T13:40:04.625Z,25.1
2017-08-26T13:41:06.814Z,25.3
2017-08-26T13:42:09.817Z,25.7
2017-08-26T13:43:15.751Z,26
2017-08-26T13:44:18.250Z,26
2017-08-26T13:45:20.556Z,25.8
2017-08-26T13:46:23.021Z,25.9
2017-08-26T13:47:25.202Z,25.7
2017-08-26T13:48:27.262Z,25.7
2017-08-26T13:49:30.177Z,25.8
2017-08-26T13:50:32.289Z,26
2017-08-26T13:51:34.420Z,26.1
2017-08-26T13:52:36.526Z,26.3
2017-08-26T13:53:38.667Z,26.2
2017-08-26T13:54:41.158Z,26.1